createdAt,value
2023-01-28T00:03:52.057Z,103044.78
2023-01-28T00:08:55.851Z,103038.56
2023-01-28T00:13:57.954Z,103032.16
2023-01-28T00:18:59.552Z,103024.25
2023-01-28T00:24:01.881Z,103042.31
2023-01-28T00:29:04.252Z,103036.94
2023-01-28T00:34:05.807Z,103035.00
2023-01-28T00:39:07.407Z,103034.44
2023-01-28T00:44:09.184Z,103043.69
2023-01-28T00:49:11.143Z,103033.75
2023-01-28T00:54:13.704Z,103028.16
2023-01-28T00:59:15.396Z,103030.00
2023-01-28T01:04:26.421Z,103033.47
2023-01-28T01:09:28.171Z,103021.94
2023-01-28T01:14:29.792Z,103027.59
2023-01-28T01:19:31.608Z,103021.13
2023-01-28T01:24:34.247Z,103028.97
2023-01-28T01:29:35.968Z,103032.53
2023-01-28T01:34:37.531Z,103040.44
2023-01-28T01:39:39.142Z,103030.66
2023-01-28T01:45:04.877Z,103032.19
2023-01-28T01:50:29.684Z,103035.41
2023-01-28T01:55:36.653Z,103049.72
2023-01-28T02:00:41.844Z,103049.72
2023-01-28T02:05:43.767Z,103045.28
2023-01-28T02:10:50.910Z,103043.16
2023-01-28T02:15:53.081Z,103047.47
2023-01-28T02:21:10.429Z,103052.84
2023-01-28T02:26:39.433Z,103042.00
2023-01-28T02:31:52.834Z,103049.56
2023-01-28T02:37:23.632Z,103054.81
2023-01-28T02:42:25.129Z,103053.03
2023-01-28T02:47:45.237Z,103036.72
2023-01-28T02:53:27.359Z,103059.41
2023-01-28T02:58:42.300Z,103050.72
2023-01-28T03:04:01.912Z,103048.56
2023-01-28T03:09:25.535Z,103043.06
2023-01-28T03:14:46.951Z,103036.91
2023-01-28T03:20:07.247Z,103034.53
2023-01-28T03:25:29.610Z,103033.94
2023-01-28T03:30:59.457Z,103052.00
2023-01-28T03:36:20.630Z,103047.31
2023-01-28T03:41:24.922Z,103062.44
2023-01-28T03:46:26.414Z,103059.47
2023-01-28T03:51:28.019Z,103056.97
2023-01-28T03:56:32.523Z,103064.97
2023-01-28T04:01:34.151Z,103047.06
2023-01-28T04:06:35.693Z,103050.69
2023-01-28T04:11:37.231Z,103052.63
2023-01-28T04:16:38.854Z,103056.72
2023-01-28T04:21:40.406Z,103056.03
2023-01-28T04:26:41.924Z,103035.13
2023-01-28T04:31:43.567Z,103045.41
2023-01-28T04:36:45.164Z,103036.56
2023-01-28T04:41:46.709Z,103059.72
2023-01-28T04:46:48.281Z,103055.22
2023-01-28T04:51:49.803Z,103058.53
2023-01-28T04:56:51.541Z,103058.53
2023-01-28T05:01:53.125Z,103052.28
2023-01-28T05:06:54.628Z,103059.91
2023-01-28T05:11:56.178Z,103056.91
2023-01-28T05:16:58.503Z,103062.81
2023-01-28T05:22:00.077Z,103054.78
2023-01-28T05:27:01.625Z,103059.31
2023-01-28T05:32:03.374Z,103049.31
2023-01-28T05:37:04.957Z,103055.56
2023-01-28T05:42:06.487Z,103043.91
2023-01-28T05:47:08.308Z,103044.03
2023-01-28T05:52:09.853Z,103046.72
2023-01-28T05:57:11.372Z,103050.00
2023-01-28T06:02:12.958Z,103041.78
2023-01-28T06:07:15.858Z,103045.41
2023-01-28T06:12:17.473Z,103047.31
2023-01-28T06:17:19.009Z,103047.34
2023-01-28T06:22:20.502Z,103048.22
2023-01-28T06:27:21.972Z,103039.34
2023-01-28T06:32:23.496Z,103036.72
2023-01-28T06:37:26.280Z,103050.00
2023-01-28T06:42:27.904Z,103047.31
2023-01-28T06:47:29.456Z,103056.81
2023-01-28T06:52:30.931Z,103059.50
2023-01-28T06:57:34.029Z,103062.38
2023-01-28T07:02:35.539Z,103060.72
2023-01-28T07:07:37.141Z,103065.06
2023-01-28T07:12:38.830Z,103067.84
2023-01-28T07:17:41.724Z,103084.88
2023-01-28T07:22:44.495Z,103093.91
2023-01-28T07:27:48.414Z,103080.69
2023-01-28T07:32:54.567Z,103075.34
2023-01-28T07:37:58.517Z,103071.19
2023-01-28T07:43:00.867Z,103068.34
2023-01-28T07:48:05.539Z,103079.50
2023-01-28T07:53:10.635Z,103086.63
2023-01-28T07:58:12.706Z,103073.31
2023-01-28T08:03:15.761Z,103111.28
2023-01-28T08:08:17.690Z,103121.00
2023-01-28T08:13:20.003Z,103118.53
2023-01-28T08:18:21.515Z,103119.56
2023-01-28T08:23:24.362Z,103129.22
2023-01-28T08:28:26.263Z,103126.13
2023-01-28T08:33:27.835Z,103129.03
2023-01-28T08:38:29.333Z,103126.41
2023-01-28T08:43:30.857Z,103131.38
2023-01-28T08:48:32.345Z,103132.56
2023-01-28T08:53:33.867Z,103147.13
2023-01-28T08:58:35.391Z,103149.97
2023-01-28T09:03:36.899Z,103154.06
2023-01-28T09:08:38.524Z,103166.81
2023-01-28T09:13:40.099Z,103153.97
2023-01-28T09:18:41.726Z,103164.91
2023-01-28T09:23:43.373Z,103169.66
2023-01-28T09:28:44.900Z,103171.22
2023-01-28T09:33:47.459Z,103166.25
2023-01-28T09:38:48.966Z,103174.69
2023-01-28T09:43:59.581Z,103178.97
2023-01-28T09:49:05.170Z,103174.81
2023-01-28T09:54:17.299Z,103175.84
2023-01-28T09:59:22.093Z,103188.41
2023-01-28T10:04:38.767Z,103191.09
2023-01-28T10:10:03.305Z,103176.34
2023-01-28T10:15:20.923Z,103175.44
2023-01-28T10:20:30.951Z,103169.41
2023-01-28T10:25:33.509Z,103151.34
2023-01-28T10:30:40.666Z,103141.13
2023-01-28T10:35:43.643Z,103122.53
2023-01-28T10:40:48.018Z,103105.97
2023-01-28T10:45:55.498Z,103087.19
2023-01-28T10:51:02.014Z,103075.72
2023-01-28T10:56:07.421Z,103074.59
2023-01-28T11:01:08.963Z,103058.38
2023-01-28T11:06:24.765Z,103053.09
2023-01-28T11:11:28.256Z,103066.41
2023-01-28T11:16:29.885Z,103074.53
2023-01-28T11:21:32.827Z,103066.97
2023-01-28T11:26:38.098Z,103085.94
2023-01-28T11:31:44.201Z,103086.38
2023-01-28T11:36:54.281Z,103101.59
2023-01-28T11:42:10.982Z,103112.47
2023-01-28T11:47:33.581Z,103113.34
2023-01-28T11:53:16.784Z,103108.28
2023-01-28T11:58:33.207Z,103096.94
2023-01-28T12:03:51.795Z,103068.16
2023-01-28T12:09:16.793Z,103054.75
2023-01-28T12:14:58.152Z,103053.75
2023-01-28T12:20:38.935Z,103051.50
2023-01-28T12:26:05.139Z,103030.38
2023-01-28T12:31:43.742Z,103015.91
2023-01-28T12:37:17.741Z,103019.34
2023-01-28T12:42:31.022Z,103018.31
2023-01-28T12:47:38.264Z,103013.53
2023-01-28T12:52:45.230Z,103013.38
2023-01-28T12:57:48.834Z,103006.13
2023-01-28T13:03:11.498Z,103008.59
2023-01-28T13:08:23.073Z,103017.75
2023-01-28T13:13:32.188Z,103013.16
2023-01-28T13:18:43.989Z,103011.16
2023-01-28T13:23:50.323Z,103018.16
2023-01-28T13:28:53.586Z,103004.31
2023-01-28T13:33:55.015Z,102991.03
2023-01-28T13:39:05.155Z,103007.72
2023-01-28T13:44:27.486Z,103028.25
2023-01-28T13:49:44.573Z,103014.34
2023-01-28T13:54:55.136Z,102990.66
2023-01-28T14:00:11.504Z,102981.50
2023-01-28T14:05:36.390Z,102984.31
2023-01-28T14:10:55.491Z,102983.50
2023-01-28T14:15:59.206Z,102984.44
2023-01-28T14:21:03.369Z,102983.50
2023-01-28T14:26:10.929Z,103001.66
2023-01-28T14:31:23.356Z,103009.69
2023-01-28T14:36:25.322Z,103010.34
2023-01-28T14:41:28.532Z,103003.19
2023-01-28T14:46:32.858Z,103025.09
2023-01-28T14:52:19.533Z,103051.91
2023-01-28T14:57:33.820Z,103040.13
2023-01-28T15:02:35.409Z,103021.09
2023-01-28T15:07:37.125Z,103025.63
2023-01-28T15:12:41.345Z,103034.38
2023-01-28T15:17:42.917Z,103032.56
2023-01-28T15:22:45.014Z,103022.44
2023-01-28T15:27:47.555Z,103029.06
2023-01-28T15:33:22.177Z,103037.31
2023-01-28T15:38:26.699Z,103048.34
2023-01-28T15:43:35.783Z,103035.13
2023-01-28T15:48:41.966Z,103022.94
2023-01-28T15:53:46.683Z,103018.63
2023-01-28T15:58:48.225Z,103029.81
2023-01-28T16:04:06.942Z,103032.63
2023-01-28T16:09:23.636Z,103029.53
2023-01-28T16:14:28.054Z,103016.88
2023-01-28T16:19:38.721Z,103015.59
2023-01-28T16:24:49.546Z,103010.25
2023-01-28T16:29:51.216Z,102997.81
2023-01-28T16:34:52.753Z,103003.63
2023-01-28T16:39:54.211Z,103010.72
2023-01-28T16:44:58.806Z,102999.19
2023-01-28T16:50:00.401Z,103006.44
2023-01-28T16:55:03.180Z,103017.47
2023-01-28T17:00:06.398Z,103006.81
2023-01-28T17:05:08.338Z,103009.38
2023-01-28T17:10:10.682Z,103009.19
2023-01-28T17:15:12.211Z,103016.25
2023-01-28T17:20:13.757Z,103023.84
2023-01-28T17:25:15.678Z,103018.50
2023-01-28T17:30:20.852Z,103028.53
2023-01-28T17:35:22.345Z,103029.31
2023-01-28T17:40:24.277Z,103042.63
2023-01-28T17:45:25.864Z,103042.63
2023-01-28T17:50:27.523Z,103062.00
2023-01-28T17:55:29.603Z,103052.00
2023-01-28T18:00:32.122Z,103068.91
2023-01-28T18:05:33.606Z,103072.38
2023-01-28T18:10:35.590Z,103079.69
2023-01-28T18:15:37.058Z,103079.16
2023-01-28T18:20:38.614Z,103059.44
2023-01-28T18:25:40.547Z,103060.09
2023-01-28T18:30:42.050Z,103053.00
2023-01-28T18:35:44.536Z,103071.94
2023-01-28T18:40:46.922Z,103073.63
2023-01-28T18:45:49.448Z,103070.97
2023-01-28T18:50:52.462Z,103063.50
2023-01-28T18:55:53.959Z,103081.56
2023-01-28T19:00:55.554Z,103075.94
2023-01-28T19:05:57.134Z,103075.94
2023-01-28T19:10:58.678Z,103076.09
2023-01-28T19:16:04.406Z,103072.28
2023-01-28T19:21:06.465Z,103061.47
2023-01-28T19:26:08.030Z,103054.31
2023-01-28T19:31:09.941Z,103064.56
2023-01-28T19:36:11.939Z,103042.72
2023-01-28T19:41:16.151Z,103039.06
2023-01-28T19:46:18.469Z,103040.88
2023-01-28T19:51:20.785Z,103030.06
2023-01-28T19:56:24.790Z,103028.59
2023-01-28T20:01:30.196Z,103041.09
2023-01-28T20:06:33.689Z,103035.69
2023-01-28T20:11:35.799Z,103036.50
2023-01-28T20:16:37.609Z,103033.72
2023-01-28T20:21:39.226Z,103030.50
2023-01-28T20:26:43.019Z,103031.25
2023-01-28T20:31:44.712Z,103025.69
2023-01-28T20:36:46.300Z,103019.34
2023-01-28T20:41:47.983Z,103013.13
2023-01-28T20:46:49.509Z,103013.13
2023-01-28T20:51:51.001Z,103012.38
2023-01-28T20:56:53.022Z,103021.31
2023-01-28T21:01:54.613Z,103021.31
2023-01-28T21:06:56.169Z,103017.75
2023-01-28T21:11:58.740Z,103013.56
2023-01-28T21:17:00.330Z,103022.50
2023-01-28T21:22:01.966Z,103029.72
2023-01-28T21:27:03.569Z,103026.84
2023-01-28T21:32:05.099Z,103037.66
2023-01-28T21:37:06.603Z,103025.09
2023-01-28T21:42:08.162Z,103027.72
2023-01-28T21:47:09.818Z,103025.25
2023-01-28T21:52:12.493Z,103022.19
2023-01-28T21:57:14.032Z,103020.28
2023-01-28T22:02:15.673Z,103006.06
2023-01-28T22:07:18.965Z,102990.84
2023-01-28T22:12:22.504Z,103001.56
2023-01-28T22:17:24.969Z,102990.78
2023-01-28T22:22:26.568Z,102984.34
2023-01-28T22:27:28.930Z,102983.06
2023-01-28T22:32:30.519Z,102979.69
2023-01-28T22:37:32.044Z,102978.53
2023-01-28T22:42:33.511Z,102973.84
2023-01-28T22:47:34.990Z,102967.50
2023-01-28T22:52:36.598Z,102965.00
2023-01-28T22:57:38.100Z,102970.41
2023-01-28T23:02:39.710Z,102966.84
2023-01-28T23:07:41.232Z,102958.88
2023-01-28T23:12:42.874Z,102961.56
2023-01-28T23:18:02.780Z,102956.81
2023-01-28T23:23:22.865Z,102960.88
2023-01-28T23:28:24.359Z,102959.91
2023-01-28T23:33:26.363Z,102952.50
2023-01-28T23:38:27.886Z,102938.78
2023-01-28T23:43:29.372Z,102912.94
2023-01-28T23:48:30.858Z,102919.59
2023-01-28T23:53:32.430Z,102918.34
2023-01-28T23:58:43.068Z,102929.66
